Monday, July 23, 2018, 11:28 AM EDT
Back to Local

KLGA, New York La Guardia Airport

Location: Astoria, NY, United States Lat: 40.783
Local Time: 11:28 AM EDT (15:28 GMT) Lon: -73.883
Time Zone: US/Eastern Elev: 22 ft

Show me the last for .
Show Decoded

2018-07-23 11:20 METAR KLGA 231520Z 17009KT 10SM FEW011 BKN023 BKN070 BKN140 27/22 A3012 RMK AO2
                 RAB11E20 P0000 T02670217 $ =
2018-07-23 10:51 METAR KLGA 231451Z 16009KT 10SM FEW009 BKN034 BKN070 BKN140 26/22 A3011 RMK AO2
                 RAE1354 SLP196 P0000 60007 T02610222 51017 $ =
2018-07-23 10:19 METAR KLGA 231419Z 15008KT 10SM FEW009 BKN048 BKN060 BKN140 26/23 A3011 RMK AO2
                 RAE1354 P0000 T02560228 $ =
2018-07-23 09:51 METAR KLGA 231351Z 17011G20KT 10SM -RA BKN009 BKN050 BKN080 BKN140 25/22 A3010
                 RMK AO2 RAB1259 SLP193 BKN009 V SCT P0007 T02500222 $ =
2018-07-23 08:51 METAR KLGA 231251Z 16010KT 10SM BKN009 BKN013 OVC045 24/22 A3009 RMK AO2
                 RAE00B17E37 SLP187 P0000 T02440217 $ =
2018-07-23 08:39 METAR KLGA 231239Z 16008KT 10SM BKN009 BKN013 OVC045 25/22 A3008 RMK AO2
                 RAE00B17E37 P0000 T02500217 $ =
2018-07-23 07:51 METAR KLGA 231151Z VRB06KT 10SM -RA SCT009 BKN046 BKN110 BKN140 25/22 A3006 RMK
                 AO2 RAE38B51 SLP180 P0001 60004 70040 T02500222 10261 20244 53014 $ =
2018-07-23 07:44 METAR KLGA 231144Z 15010KT 10SM SCT009 BKN046 BKN110 BKN140 24/22 A3006 RMK AO2
                 RAE38 P0001 T02440222 $ =
2018-07-23 06:51 METAR KLGA 231051Z 15012KT 9SM -RA OVC009 25/23 A3005 RMK AO2 SLP176 P0003
                 T02500228 $ =
2018-07-23 05:51 METAR KLGA 230951Z 15011G21KT 10SM -RA BKN011 BKN026 OVC043 25/23 A3003 RMK AO2
                 RAB24 SLP169 P0000 T02500228 $ =
2018-07-23 04:51 METAR KLGA 230851Z 15012G22KT 10SM BKN011 OVC031 26/23 A3002 RMK AO2 SLP166
                 T02560228 53000 $ =
2018-07-23 03:51 METAR KLGA 230751Z 15012KT 10SM BKN011 OVC022 26/23 A3001 RMK AO2 SLP162
                 T02560228 $ =
2018-07-23 03:10 METAR KLGA 230710Z 14013KT 10SM SCT013 BKN023 OVC080 26/23 A3001 RMK AO2
                 T02560228 $ =
2018-07-23 02:51 METAR KLGA 230651Z 14012KT 10SM BKN011 BKN025 OVC080 26/23 A3001 RMK AO2 SLP163
                 T02560233 $ =
2018-07-23 01:51 METAR KLGA 230551Z 14010KT 10SM OVC012 26/23 A3002 RMK AO2 SLP166 60031
                 T02560228 10261 20244 50004 $ =
2018-07-23 00:51 METAR KLGA 230451Z 15011KT 10SM BKN011 BKN019 OVC070 26/23 A3002 RMK AO2 PK WND
                 14026/0353 SLP167 T02560233 402890222 $ =
2018-07-23 00:42 METAR KLGA 230442Z 15010KT 10SM BKN011 BKN019 OVC070 26/23 A3002 RMK AO2 PK WND
                 14026/0353 T02560233 $ =
2018-07-23 00:14 METAR KLGA 230414Z 15015KT 10SM SCT011 BKN031 OVC060 26/23 A3002 RMK AO2 PK WND
                 14026/0353 T02560233 $ =
2018-07-22 23:51 METAR KLGA 230351Z 16015G20KT 10SM BKN010 BKN022 OVC037 26/23 A3002 RMK AO2
                 RAE0252 SLP166 P0000 T02560233 $ =
2018-07-22 23:26 METAR KLGA 230326Z 16015G23KT 10SM SCT010 BKN023 OVC037 26/23 A3001 RMK AO2
                 RAE0252 P0000 T02560233 $ =
2018-07-22 22:51 METAR KLGA 230251Z 15014G22KT 10SM -RA BKN011 OVC027 25/23 A3001 RMK AO2 RAB0159
                 SLP162 P0001 60031 T02500228 51014 $ =
2018-07-22 22:01 METAR KLGA 230201Z 15009KT 10SM -RA OVC009 26/23 A3001 RMK AO2 RAB0159 P0000
                 T02560228 $ =
2018-07-22 21:51 METAR KLGA 230151Z 15009KT 10SM BKN011 OVC014 26/23 A3001 RMK AO2 RAB00E49
                 SLP161 P0005 T02560228 $ =
2018-07-22 21:31 METAR KLGA 230131Z 14010G18KT 10SM -RA OVC011 26/23 A3001 RMK AO2 RAB00 P0003
                 T02560228 $ =
2018-07-22 20:55 METAR KLGA 230055Z 13010KT 10SM BKN009 BKN013 OVC023 25/23 A2999 RMK AO2
                 T02500228 $ =
2018-07-22 20:51 METAR KLGA 230051Z 13009KT 10SM BKN016 BKN020 OVC047 25/22 A2999 RMK AO2 RAE50
                 SLP154 P0025 T02500222 $ =
2018-07-22 20:24 METAR KLGA 230024Z 14015G21KT 10SM -RA BKN016 BKN034 OVC065 24/22 A2998 RMK AO2
                 P0011 T02440222 $ =
2018-07-22 19:58 METAR KLGA 222358Z 14014G23KT 8SM R04/2800VP6000FT -RA FEW013 BKN040 OVC100
                 25/21 A2997 RMK AO2 P0000 T02500211 $ =
2018-07-22 19:51 METAR KLGA 222351Z 14014G27KT 10SM -RA BKN015 BKN033 OVC046 25/22 A2997 RMK AO2
                 PK WND 14027/2345 RAB2255 SLP149 P0001 60005 T02500217 10283 20250 53002 $ =
2018-07-22 18:51 METAR KLGA 222251Z 14010KT 10SM BKN015 OVC025 26/22 A2998 RMK AO2 RAE25 SLP151
                 P0004 T02610217 $ =
2018-07-22 17:51 METAR KLGA 222151Z 13017G23KT 10SM -RA BKN017 OVC029 26/22 A2996 RMK AO2 RAB51
                 SLP144 P0000 T02610217 $ =
2018-07-22 16:51 METAR KLGA 222051Z 14015KT 10SM BKN016 BKN050 BKN250 27/22 A2997 RMK AO2 SLP147
                 60000 T02670217 53004 $ =
2018-07-22 15:51 METAR KLGA 221951Z 15016G23KT 10SM BKN016 BKN250 28/22 A2995 RMK AO2 RAB03E16
                 SLP141 P0000 T02780222 $ =
2018-07-22 14:51 METAR KLGA 221851Z 14014G21KT 10SM BKN016 BKN024 OVC030 28/22 A2995 RMK AO2
                 SLP143 T02780222 $ =
2018-07-22 13:51 METAR KLGA 221751Z 15017KT 8SM BKN020 BKN026 BKN037 BKN250 28/22 A2995 RMK AO2
                 SLP143 60000 T02780222 10289 20233 51010 $ =
2018-07-22 12:51 METAR KLGA 221651Z 16015KT 10SM FEW009 BKN020 BKN033 BKN140 BKN250 28/21 A2995
                 RMK AO2 SLP143 T02780206 $ =
2018-07-22 11:51 METAR KLGA 221551Z 15016KT 10SM FEW009 BKN022 BKN045 BKN140 26/19 A2994 RMK AO2
                 SLP139 T02610194 $ =

Support USWX by starting your Amazon purchase here.